Time;durP1;ratioP1;P1;durP2;ratioP2;P2;SDS_P1;SDS_P2;PMS_P1;PMS_P2;Temp;Humidity;BMP_temperature;BMP_pressure;BME280_temperature;BME280_humidity;BME280_pressure;Samples;Min_cycle;Max_cycle;Signal;HPM_P1;HPM_P2
2022/03/11 00:00:57;;;;;;;19.60;11.82;;;6.10;82.80;;;;;;5083027;28;20546;-78
2022/03/11 00:07:10;;;;;;;19.48;12.50;;;6.10;82.40;;;;;;5083430;28;20399;-77
2022/03/11 00:10:06;;;;;;;18.40;12.75;;;6.10;82.30;;;;;;5059877;28;20032;-77
2022/03/11 00:13:21;;;;;;;17.52;12.05;;;6.10;83.00;;;;;;5081093;28;20647;-78
2022/03/11 00:16:21;;;;;;;20.48;11.82;;;6.10;82.10;;;;;;5073804;28;20032;-78
2022/03/11 00:19:58;;;;;;;;;;;;;;;;;;;;;
2022/03/11 00:23:00;;;;;;;19.33;11.45;;;6.10;81.40;;;;;;5048433;28;20046;-76
2022/03/11 00:26:08;;;;;;;;;;;;;;;;;;;;;
2022/03/11 00:29:05;;;;;;;18.55;12.40;;;6.10;80.60;;;;;;5077535;28;20494;-77
2022/03/11 00:45:16;;;;;;;14.93;8.43;;;6.10;79.70;;;;;;4982040;28;20061;-78
2022/03/11 00:48:55;;;;;;;19.00;11.23;;;6.20;79.80;;;;;;4981094;28;20102;-78
2022/03/11 00:59:01;;;;;;;14.32;10.48;;;6.00;80.00;;;;;;4940645;29;20032;-77
2022/03/11 01:01:45;;;;;;;13.93;10.50;;;6.00;79.90;;;;;;4937052;29;20074;-77
2022/03/11 01:07:46;;;;;;;16.40;10.70;;;6.00;79.90;;;;;;4886280;29;20025;-78
2022/03/11 01:10:48;;;;;;;14.30;10.60;;;5.90;79.70;;;;;;4912725;29;20047;-77
2022/03/11 01:20:11;;;;;;;14.57;10.70;;;5.90;79.60;;;;;;4877280;29;20464;-77
2022/03/11 01:51:29;;;;;;;16.42;10.35;;;5.80;78.70;;;;;;4949845;28;20439;-77
2022/03/11 01:55:01;;;;;;;17.15;10.45;;;5.70;78.20;;;;;;4955854;28;20035;-77
2022/03/11 01:58:04;;;;;;;20.35;10.90;;;5.70;78.30;;;;;;4953548;28;20133;-77
2022/03/11 02:18:20;;;;;;;18.50;10.40;;;5.80;76.50;;;;;;5007591;28;20093;-77
2022/03/11 02:48:42;;;;;;;21.58;10.43;;;5.60;76.50;;;;;;4895447;29;20512;-77
2022/03/11 03:18:53;;;;;;;13.73;9.65;;;5.60;75.40;;;;;;5103010;28;20169;-77
2022/03/11 03:42:31;;;;;;;;;;;;;;;;;;;;;
2022/03/11 04:02:57;;;;;;;13.27;9.20;;;6.10;72.30;;;;;;4847560;29;20053;-77
2022/03/11 04:33:44;;;;;;;13.50;9.07;;;6.20;71.30;;;;;;4795127;29;20073;-78
2022/03/11 04:40:06;;;;;;;15.18;8.57;;;6.20;71.30;;;;;;4806195;29;20112;-77
2022/03/11 04:47:01;;;;;;;12.85;8.85;;;6.20;71.10;;;;;;4820634;29;20191;-77
2022/03/11 04:53:04;;;;;;;17.73;8.65;;;6.20;70.70;;;;;;4792611;29;20031;-77
2022/03/11 05:02:48;;;;;;;;;;;;;;;;;;;;;
2022/03/11 05:06:10;;;;;;;14.15;8.65;;;6.30;69.70;;;;;;4999170;28;20048;-78
2022/03/11 05:09:04;;;;;;;11.32;8.25;;;6.30;69.50;;;;;;4987416;28;20069;-77
2022/03/11 05:15:07;;;;;;;12.20;7.78;;;6.30;69.20;;;;;;5058879;28;20038;-77
2022/03/11 05:17:57;;;;;;;9.02;7.57;;;6.30;69.10;;;;;;5054811;28;20028;-77
2022/03/11 05:28:12;;;;;;;11.38;7.70;;;6.30;68.80;;;;;;4905792;28;20040;-78
2022/03/11 05:30:57;;;;;;;17.52;8.75;;;6.30;68.30;;;;;;4985168;28;20065;-77
2022/03/11 05:33:47;;;;;;;13.27;7.53;;;6.30;68.00;;;;;;4987149;28;20637;-77
2022/03/11 05:36:19;;;;;;;16.55;7.68;;;6.30;67.50;;;;;;5080239;28;20032;-78
2022/03/11 05:38:48;;;;;;;13.32;7.45;;;6.30;67.20;;;;;;5075118;28;20036;-77
2022/03/11 05:41:23;;;;;;;12.65;7.53;;;6.30;67.40;;;;;;5083593;28;20085;-78
2022/03/11 05:43:55;;;;;;;13.27;7.43;;;6.30;67.40;;;;;;5080665;28;20371;-78
2022/03/11 05:46:30;;;;;;;10.85;7.95;;;6.30;67.70;;;;;;5064864;28;20484;-79
2022/03/11 05:49:26;;;;;;;14.18;8.07;;;6.30;67.40;;;;;;5055143;28;20045;-78
2022/03/11 05:52:01;;;;;;;11.40;8.07;;;6.40;67.30;;;;;;5074205;28;20099;-78
2022/03/11 05:54:32;;;;;;;15.90;8.07;;;6.40;67.00;;;;;;5083021;28;20044;-79
2022/03/11 05:57:34;;;;;;;10.02;7.88;;;6.40;66.70;;;;;;5080050;28;20036;-79
2022/03/11 06:00:39;;;;;;;12.25;7.30;;;6.40;66.60;;;;;;5053546;28;20032;-79
2022/03/11 06:03:24;;;;;;;13.02;7.57;;;6.50;66.20;;;;;;5057347;28;20043;-79
2022/03/11 06:06:33;;;;;;;12.02;7.82;;;6.50;66.30;;;;;;5082506;28;20031;-79
2022/03/11 06:09:08;;;;;;;12.38;7.82;;;6.50;66.10;;;;;;4987973;28;20133;-79
2022/03/11 06:11:40;;;;;;;11.50;7.70;;;6.50;66.30;;;;;;5011218;28;20064;-79
2022/03/11 06:14:06;;;;;;;14.23;8.00;;;6.50;66.30;;;;;;5083693;28;20016;-79
2022/03/11 06:16:33;;;;;;;11.57;7.65;;;6.50;66.20;;;;;;5078183;28;20032;-79
2022/03/11 06:19:02;;;;;;;12.77;8.13;;;6.60;65.70;;;;;;5066425;28;20394;-79
2022/03/11 06:21:43;;;;;;;12.07;7.50;;;6.60;65.90;;;;;;5063602;28;20028;-78
2022/03/11 06:24:29;;;;;;;10.85;7.63;;;6.60;65.50;;;;;;5082124;28;20024;-79
2022/03/11 06:26:55;;;;;;;11.70;7.28;;;6.60;65.10;;;;;;5082048;28;20434;-78
2022/03/11 06:29:22;;;;;;;13.57;8.45;;;6.60;65.50;;;;;;5084997;28;20051;-78
2022/03/11 06:31:47;;;;;;;12.15;7.72;;;6.60;65.00;;;;;;5079541;28;20517;-78
2022/03/11 06:34:16;;;;;;;17.80;7.80;;;6.70;65.10;;;;;;5085135;28;20028;-78
2022/03/11 06:36:42;;;;;;;13.13;7.20;;;6.70;65.90;;;;;;5082651;28;20094;-79
2022/03/11 06:39:13;;;;;;;13.80;7.43;;;6.70;65.50;;;;;;5081995;28;20074;-79
2022/03/11 06:41:41;;;;;;;10.20;7.35;;;6.70;65.40;;;;;;5084242;28;20364;-79
2022/03/11 06:44:40;;;;;;;12.02;7.63;;;6.80;65.70;;;;;;5062119;28;20471;-79
2022/03/11 06:47:11;;;;;;;13.63;7.32;;;6.80;65.00;;;;;;5083754;28;20062;-78
2022/03/11 06:49:39;;;;;;;13.48;8.15;;;6.90;66.60;;;;;;5078469;28;20017;-78
2022/03/11 06:52:05;;;;;;;11.38;7.43;;;7.00;64.90;;;;;;5083127;28;20033;-78
2022/03/11 06:54:37;;;;;;;11.25;7.70;;;7.00;64.20;;;;;;5097448;28;20025;-79
2022/03/11 06:57:26;;;;;;;15.60;8.45;;;7.00;64.80;;;;;;5080875;28;20032;-79
2022/03/11 06:59:58;;;;;;;9.85;7.35;;;7.10;64.90;;;;;;5084074;28;20024;-79
2022/03/11 07:02:37;;;;;;;;;;;;;;;;;;;;;
2022/03/11 07:05:07;;;;;;;11.52;7.18;;;7.20;64.90;;;;;;5092282;28;20083;-78
2022/03/11 07:07:46;;;;;;;14.52;7.22;;;7.20;63.40;;;;;;5082511;28;20020;-79
2022/03/11 07:10:16;;;;;;;10.98;7.55;;;7.30;62.60;;;;;;5065017;28;20034;-79
2022/03/11 07:12:43;;;;;;;12.73;7.55;;;7.20;62.20;;;;;;5073004;28;20077;-78
2022/03/11 07:15:12;;;;;;;11.60;7.13;;;7.20;62.20;;;;;;5067806;28;20517;-79
2022/03/11 07:17:46;;;;;;;13.32;7.25;;;7.30;62.70;;;;;;5065704;28;20024;-78
2022/03/11 07:20:17;;;;;;;9.90;6.43;;;7.30;62.20;;;;;;5085733;28;20042;-78
2022/03/11 07:22:48;;;;;;;14.15;6.70;;;7.30;61.60;;;;;;5073895;28;20105;-76
2022/03/11 07:25:20;;;;;;;15.05;6.65;;;7.30;61.10;;;;;;5077250;28;20024;-77
2022/03/11 07:27:46;;;;;;;7.97;6.47;;;7.30;61.40;;;;;;5062941;28;20020;-78
2022/03/11 07:30:12;;;;;;;12.32;5.97;;;7.30;61.50;;;;;;5087396;28;20039;-77
2022/03/11 07:32:53;;;;;;;12.93;6.55;;;7.40;62.10;;;;;;5063106;28;20052;-78
2022/03/11 07:38:14;;;;;;;10.25;6.65;;;7.50;61.60;;;;;;5083104;28;20043;-80
2022/03/11 07:40:40;;;;;;;11.82;6.53;;;7.50;61.40;;;;;;5079592;28;20043;-77
2022/03/11 07:43:13;;;;;;;13.07;6.57;;;7.60;61.40;;;;;;5078673;28;20020;-77
2022/03/11 07:45:41;;;;;;;14.10;6.82;;;7.60;61.00;;;;;;5078032;28;20060;-77
2022/03/11 07:48:15;;;;;;;11.48;6.45;;;7.70;60.70;;;;;;5080453;28;20023;-77
2022/03/11 07:50:44;;;;;;;12.00;6.47;;;7.70;61.40;;;;;;5080813;28;20115;-78
2022/03/11 07:53:13;;;;;;;14.57;6.90;;;7.70;60.60;;;;;;5064612;28;20039;-78
2022/03/11 07:55:39;;;;;;;9.43;6.65;;;7.70;60.90;;;;;;5079143;28;20120;-78
2022/03/11 07:58:05;;;;;;;15.35;6.97;;;7.80;60.40;;;;;;5082932;28;20107;-77
2022/03/11 08:00:37;;;;;;;14.88;6.72;;;7.80;60.10;;;;;;5084991;28;20127;-78
2022/03/11 08:03:03;;;;;;;9.75;6.20;;;7.80;60.90;;;;;;5082185;28;20368;-77
2022/03/11 08:05:32;;;;;;;9.05;6.65;;;7.80;60.40;;;;;;5056767;28;20037;-78
2022/03/11 08:08:06;;;;;;;11.25;6.85;;;7.90;61.60;;;;;;5080761;28;20021;-78
2022/03/11 08:10:36;;;;;;;9.98;6.30;;;7.90;60.50;;;;;;5071154;28;20035;-77
2022/03/11 08:13:03;;;;;;;18.25;6.60;;;8.00;59.90;;;;;;5081128;28;20517;-77
2022/03/11 08:15:30;;;;;;;15.52;7.78;;;8.00;60.00;;;;;;5084941;28;20506;-78
2022/03/11 08:17:55;;;;;;;11.45;7.50;;;8.10;60.00;;;;;;5083811;28;20046;-78
2022/03/11 08:20:24;;;;;;;14.98;6.78;;;8.10;61.20;;;;;;5061230;28;20032;-77
2022/03/11 08:22:54;;;;;;;9.10;6.70;;;8.10;60.10;;;;;;5062283;28;20024;-78
2022/03/11 08:25:26;;;;;;;13.07;7.47;;;8.10;60.30;;;;;;5070664;28;20034;-78
2022/03/11 08:27:58;;;;;;;;;;;8.10;60.00;;;;;;5080759;28;20042;-77
2022/03/11 08:30:25;;;;;;;14.13;7.40;;;8.20;60.10;;;;;;5066830;28;19908;-78
2022/03/11 08:32:58;;;;;;;11.43;7.40;;;8.20;60.10;;;;;;5083887;28;20111;-77
2022/03/11 08:35:27;;;;;;;;;;;8.10;59.60;;;;;;5072578;28;20139;-77
2022/03/11 08:37:54;;;;;;;8.73;6.57;;;8.10;59.90;;;;;;5101988;28;19911;-77
2022/03/11 08:40:23;;;;;;;10.35;7.38;;;8.10;60.20;;;;;;5097234;28;20451;-77
2022/03/11 08:42:55;;;;;;;12.18;7.40;;;8.10;60.60;;;;;;5083667;28;20028;-77
2022/03/11 08:45:21;;;;;;;13.82;7.25;;;8.10;60.10;;;;;;5087954;28;20032;-77
2022/03/11 08:47:50;;;;;;;11.10;7.30;;;8.20;60.50;;;;;;5100938;28;20080;-78
2022/03/11 08:50:20;;;;;;;10.38;7.55;;;8.20;59.50;;;;;;5099908;28;20038;-78
2022/03/11 08:52:49;;;;;;;13.48;7.57;;;8.30;59.60;;;;;;5100814;28;20016;-78
2022/03/11 08:55:39;;;;;;;15.02;8.15;;;8.30;59.90;;;;;;5101221;28;20043;-78
2022/03/11 08:58:05;;;;;;;10.15;7.55;;;8.30;59.80;;;;;;5102416;28;20020;-78
2022/03/11 09:00:36;;;;;;;12.93;7.45;;;8.40;59.80;;;;;;5079933;28;20034;-78
2022/03/11 09:03:10;;;;;;;16.55;8.27;;;8.50;59.50;;;;;;5102755;28;20046;-78
2022/03/11 09:05:46;;;;;;;14.00;7.88;;;8.60;59.00;;;;;;5079931;28;20036;-78
2022/03/11 09:08:21;;;;;;;12.23;7.85;;;8.60;59.40;;;;;;5097702;28;20043;-78
2022/03/11 09:13:49;;;;;;;13.13;8.40;;;8.80;60.00;;;;;;5037511;28;20043;-78
2022/03/11 09:16:21;;;;;;;18.90;7.80;;;8.90;59.10;;;;;;5024670;28;20055;-78
2022/03/11 09:18:55;;;;;;;8.73;6.97;;;8.90;58.80;;;;;;5057639;28;20059;-77
2022/03/11 09:21:42;;;;;;;12.88;7.35;;;8.80;59.10;;;;;;5095411;28;20114;-78
2022/03/11 09:24:13;;;;;;;23.33;7.20;;;8.80;58.80;;;;;;5099606;28;20024;-78
2022/03/11 09:26:58;;;;;;;12.15;7.50;;;8.70;58.80;;;;;;5099753;28;20042;-78
2022/03/11 09:29:46;;;;;;;14.32;7.97;;;8.70;59.40;;;;;;5103196;28;20389;-78
2022/03/11 09:32:12;;;;;;;14.85;7.40;;;8.60;59.50;;;;;;5065049;28;20021;-78
2022/03/11 09:34:37;;;;;;;12.88;7.65;;;8.70;59.40;;;;;;5095214;28;20042;-78
2022/03/11 09:37:09;;;;;;;10.02;7.38;;;8.80;58.30;;;;;;5100620;28;20032;-78
2022/03/11 09:39:41;;;;;;;11.98;7.53;;;8.90;59.10;;;;;;5094983;28;20032;-78
2022/03/11 09:42:10;;;;;;;10.82;7.75;;;9.00;58.50;;;;;;5101575;28;20115;-78
2022/03/11 09:44:51;;;;;;;12.88;7.80;;;9.10;58.90;;;;;;5097697;28;20086;-78
2022/03/11 09:47:19;;;;;;;20.40;7.78;;;9.10;58.00;;;;;;5103383;28;20108;-78
2022/03/11 09:49:46;;;;;;;12.48;7.70;;;9.10;59.20;;;;;;5097752;28;20604;-78
2022/03/11 09:52:16;;;;;;;12.15;8.15;;;9.10;58.80;;;;;;5081332;28;20078;-78
2022/03/11 09:54:46;;;;;;;13.43;7.55;;;9.10;58.30;;;;;;5077711;28;20019;-78
2022/03/11 09:57:27;;;;;;;11.48;8.02;;;9.00;58.50;;;;;;5097168;28;20032;-78
2022/03/11 09:59:59;;;;;;;9.88;7.43;;;9.00;58.60;;;;;;5079660;28;20197;-78
2022/03/11 10:02:27;;;;;;;12.52;8.05;;;9.00;58.50;;;;;;5098906;28;20028;-78
2022/03/11 10:05:12;;;;;;;17.60;7.80;;;9.10;58.80;;;;;;5096668;28;20031;-78
2022/03/11 10:08:31;;;;;;;13.07;8.18;;;9.10;58.30;;;;;;5102225;28;20047;-78
2022/03/11 10:11:41;;;;;;;13.02;7.53;;;9.10;58.30;;;;;;5078472;28;20044;-78
2022/03/11 10:14:16;;;;;;;13.00;8.10;;;9.10;58.70;;;;;;5094680;28;20066;-78
2022/03/11 10:16:48;;;;;;;16.13;8.15;;;9.00;59.10;;;;;;5082454;28;20036;-78
2022/03/11 10:19:14;;;;;;;13.07;7.95;;;9.00;59.00;;;;;;5097181;28;20069;-78
2022/03/11 10:21:45;;;;;;;17.50;8.70;;;9.20;59.50;;;;;;5080823;28;20398;-78
2022/03/11 10:24:24;;;;;;;17.70;8.68;;;9.30;59.10;;;;;;5080224;28;20028;-78
2022/03/11 10:27:01;;;;;;;22.00;9.02;;;9.40;58.20;;;;;;5101771;28;20429;-78
2022/03/11 10:29:32;;;;;;;22.90;8.48;;;9.50;59.40;;;;;;5079729;28;20023;-78
2022/03/11 10:32:03;;;;;;;16.88;9.23;;;9.60;59.00;;;;;;5080950;28;20035;-78
2022/03/11 10:34:36;;;;;;;13.18;9.82;;;9.70;58.90;;;;;;5101475;28;20044;-78
2022/03/11 10:37:12;;;;;;;15.48;8.80;;;9.80;59.20;;;;;;5101307;28;20062;-89
2022/03/11 10:39:43;;;;;;;16.98;9.20;;;9.60;59.50;;;;;;5078557;28;20110;-78
2022/03/11 10:42:19;;;;;;;15.77;9.95;;;9.50;58.70;;;;;;5077459;28;20511;-78
2022/03/11 10:45:17;;;;;;;13.95;8.55;;;9.50;59.10;;;;;;5096101;28;20020;-78
2022/03/11 10:47:43;;;;;;;14.63;9.13;;;9.60;58.70;;;;;;5038908;28;20031;-78
2022/03/11 10:50:22;;;;;;;16.42;9.23;;;9.40;58.70;;;;;;5104499;28;20026;-78
2022/03/11 10:53:12;;;;;;;13.20;8.73;;;9.40;58.60;;;;;;5073201;28;20058;-78
2022/03/11 10:55:41;;;;;;;18.95;9.55;;;9.30;58.50;;;;;;5078495;28;20248;-78
2022/03/11 10:58:10;;;;;;;13.77;8.95;;;9.20;58.70;;;;;;5085920;28;20020;-78
2022/03/11 11:00:45;;;;;;;16.33;9.23;;;9.20;59.00;;;;;;5097822;28;20031;-78
2022/03/11 11:03:27;;;;;;;16.35;9.25;;;9.10;59.30;;;;;;5100536;28;20568;-78
2022/03/11 11:05:54;;;;;;;14.07;9.80;;;9.10;59.20;;;;;;5110214;28;20027;-78
2022/03/11 11:08:42;;;;;;;15.20;8.93;;;9.20;59.70;;;;;;5104946;28;20027;-78
2022/03/11 11:11:16;;;;;;;15.40;9.25;;;9.20;59.50;;;;;;5097345;28;20060;-78
2022/03/11 11:13:43;;;;;;;14.88;8.90;;;9.30;59.10;;;;;;5101740;28;20027;-78
2022/03/11 11:16:22;;;;;;;15.23;9.57;;;9.30;59.30;;;;;;5081981;28;20459;-78
2022/03/11 11:18:53;;;;;;;15.20;9.57;;;9.40;59.00;;;;;;5093959;28;20024;-78
2022/03/11 11:21:28;;;;;;;13.23;8.50;;;9.40;59.00;;;;;;5100383;28;20032;-77
2022/03/11 11:24:09;;;;;;;15.63;9.82;;;9.30;58.70;;;;;;5103186;28;20032;-78
2022/03/11 11:26:46;;;;;;;14.50;9.10;;;9.20;58.90;;;;;;5101041;28;20114;-77
2022/03/11 11:29:18;;;;;;;16.77;9.23;;;9.30;59.00;;;;;;5106299;28;20114;-77
2022/03/11 11:31:45;;;;;;;15.67;10.23;;;9.30;58.70;;;;;;5080125;28;20035;-78
2022/03/11 11:34:32;;;;;;;15.55;9.32;;;9.50;59.00;;;;;;5082903;28;20073;-77
2022/03/11 11:36:59;;;;;;;17.70;9.75;;;9.60;58.80;;;;;;5101564;28;20044;-78
2022/03/11 11:39:34;;;;;;;18.10;9.95;;;9.70;59.50;;;;;;5088584;28;20547;-78
2022/03/11 11:42:10;;;;;;;15.65;10.45;;;9.60;58.80;;;;;;5083719;28;20389;-78
2022/03/11 11:44:42;;;;;;;14.80;9.63;;;9.70;58.60;;;;;;5097392;28;20020;-78
2022/03/11 11:47:30;;;;;;;14.83;9.40;;;9.70;58.50;;;;;;5103007;28;20411;-78
2022/03/11 11:49:56;;;;;;;12.30;8.07;;;9.80;58.80;;;;;;5100641;28;20051;-78
2022/03/11 11:52:37;;;;;;;13.80;9.02;;;10.00;59.20;;;;;;5102031;28;20026;-78
2022/03/11 11:55:17;;;;;;;18.30;9.77;;;10.10;58.90;;;;;;5102725;28;20035;-78
2022/03/11 11:57:46;;;;;;;28.95;13.43;;;10.20;58.80;;;;;;5093005;28;20020;-78
2022/03/11 12:00:26;;;;;;;22.75;12.55;;;10.00;58.90;;;;;;5098409;28;20502;-78
2022/03/11 12:02:53;;;;;;;25.08;16.95;;;9.80;58.70;;;;;;5095546;28;20020;-77
2022/03/11 12:05:41;;;;;;;17.25;12.52;;;9.70;58.60;;;;;;5099379;28;20103;-78
2022/03/11 12:08:11;;;;;;;17.65;10.80;;;9.70;59.70;;;;;;5085502;28;20452;-78
2022/03/11 12:10:51;;;;;;;18.50;10.10;;;9.80;59.80;;;;;;5099236;28;20116;-78
2022/03/11 12:13:49;;;;;;;18.85;10.32;;;9.80;59.70;;;;;;5105220;28;20378;-77
2022/03/11 12:17:10;;;;;;;20.77;11.10;;;9.90;60.10;;;;;;5102988;28;20050;-78
2022/03/11 12:19:39;;;;;;;20.80;11.18;;;9.80;59.40;;;;;;5051186;28;20036;-78
2022/03/11 12:23:03;;;;;;;18.10;10.85;;;9.80;59.10;;;;;;5102423;28;20032;-78
2022/03/11 12:25:50;;;;;;;19.83;10.70;;;9.70;59.10;;;;;;5023980;28;20428;-78
2022/03/11 12:28:20;;;;;;;19.00;11.20;;;9.70;59.90;;;;;;5019244;28;20057;-78
2022/03/11 12:30:49;;;;;;;17.77;11.55;;;9.80;59.50;;;;;;5080412;28;20058;-78
2022/03/11 12:33:19;;;;;;;23.70;12.68;;;9.90;58.70;;;;;;5083552;28;20035;-78
2022/03/11 12:35:47;;;;;;;16.67;11.85;;;9.80;58.90;;;;;;5098600;28;20139;-78
2022/03/11 12:38:18;;;;;;;21.63;11.10;;;9.90;58.80;;;;;;5084616;28;20027;-78
2022/03/11 12:40:45;;;;;;;16.08;11.68;;;10.00;58.80;;;;;;5098975;28;20063;-78
2022/03/11 12:43:12;;;;;;;17.85;11.65;;;10.20;59.40;;;;;;5083269;28;20143;-78
2022/03/11 12:45:40;;;;;;;17.52;12.18;;;10.30;58.60;;;;;;5103975;28;20085;-77
2022/03/11 12:48:08;;;;;;;21.23;10.63;;;10.40;59.20;;;;;;5103005;28;20413;-78
2022/03/11 12:50:35;;;;;;;20.45;11.80;;;10.40;58.80;;;;;;5098559;28;20027;-78
2022/03/11 12:53:04;;;;;;;17.52;10.60;;;10.30;58.30;;;;;;5090014;28;20028;-78
2022/03/11 12:55:32;;;;;;;18.75;11.18;;;10.10;58.70;;;;;;5087380;28;20456;-78
2022/03/11 12:58:08;;;;;;;18.48;11.52;;;9.70;60.70;;;;;;5102442;28;20386;-78
2022/03/11 13:00:39;;;;;;;19.17;10.77;;;9.10;63.10;;;;;;5071839;28;20371;-77
2022/03/11 13:03:31;;;;;;;24.05;11.60;;;8.70;65.00;;;;;;5103080;28;20035;-77
2022/03/11 13:05:59;;;;;;;23.63;11.17;;;8.50;66.20;;;;;;5084678;28;20115;-77
2022/03/11 13:08:25;;;;;;;17.13;11.20;;;8.50;65.30;;;;;;5102309;28;20039;-77
2022/03/11 13:10:52;;;;;;;16.90;10.85;;;8.50;66.40;;;;;;5098248;28;20092;-78
2022/03/11 13:13:20;;;;;;;15.60;10.48;;;8.60;66.00;;;;;;5102270;28;20023;-77
2022/03/11 13:15:54;;;;;;;22.35;11.35;;;8.60;66.10;;;;;;5097840;28;20047;-77
2022/03/11 13:18:29;;;;;;;19.58;10.52;;;8.50;65.90;;;;;;5102389;28;20020;-77
2022/03/11 13:21:00;;;;;;;17.25;10.38;;;8.50;66.90;;;;;;5092444;28;20098;-77
2022/03/11 13:23:30;;;;;;;17.45;10.85;;;8.40;65.80;;;;;;5102160;28;20032;-77
2022/03/11 13:26:04;;;;;;;44.40;12.30;;;8.30;66.30;;;;;;5079715;28;20032;-78
2022/03/11 13:28:41;;;;;;;25.05;11.98;;;8.20;66.70;;;;;;5102134;28;20028;-77
2022/03/11 13:31:37;;;;;;;20.98;12.05;;;8.20;66.50;;;;;;5097692;28;20048;-77
2022/03/11 13:34:07;;;;;;;21.23;11.25;;;8.40;65.60;;;;;;5100027;28;20077;-77
2022/03/11 13:36:50;;;;;;;17.60;11.23;;;8.60;64.60;;;;;;5100108;28;20095;-78
2022/03/11 13:39:21;;;;;;;21.67;11.65;;;8.80;64.60;;;;;;5097171;28;20024;-78
2022/03/11 13:41:58;;;;;;;19.52;12.10;;;9.00;63.70;;;;;;5101638;28;20028;-78
2022/03/11 13:44:39;;;;;;;18.25;11.27;;;8.90;63.10;;;;;;5103170;28;20019;-77
2022/03/11 13:47:20;;;;;;;21.75;11.63;;;8.90;62.70;;;;;;5100935;28;20478;-78
2022/03/11 13:49:53;;;;;;;20.60;12.40;;;8.90;62.20;;;;;;5096087;28;20023;-78
2022/03/11 13:52:24;;;;;;;22.55;11.88;;;8.80;62.50;;;;;;5100181;28;20023;-78
2022/03/11 13:54:51;;;;;;;20.05;11.25;;;8.90;63.10;;;;;;5083532;28;20107;-78
2022/03/11 13:57:19;;;;;;;18.60;12.35;;;8.80;62.40;;;;;;5099271;28;20245;-77
2022/03/11 13:59:54;;;;;;;18.75;10.68;;;8.90;63.20;;;;;;5097759;28;20470;-78
2022/03/11 14:02:23;;;;;;;20.80;12.88;;;8.90;62.50;;;;;;5099508;28;20386;-77
2022/03/11 14:05:13;;;;;;;18.05;11.52;;;8.80;62.70;;;;;;5098327;28;20493;-77
2022/03/11 14:07:48;;;;;;;20.58;12.15;;;8.70;62.50;;;;;;5098451;28;20016;-78
2022/03/11 14:10:28;;;;;;;22.95;12.18;;;8.70;62.60;;;;;;5105391;28;20421;-78
2022/03/11 14:13:01;;;;;;;18.25;11.82;;;8.70;62.50;;;;;;5073635;28;20024;-78
2022/03/11 14:15:35;;;;;;;19.75;12.23;;;8.80;61.90;;;;;;5088424;28;20024;-77
2022/03/11 14:18:05;;;;;;;19.35;12.90;;;8.70;62.00;;;;;;5098364;28;20020;-78
2022/03/11 14:20:31;;;;;;;21.20;12.25;;;8.80;63.40;;;;;;5104269;28;20100;-77
2022/03/11 14:22:57;;;;;;;18.10;12.55;;;8.80;62.30;;;;;;5101080;28;20055;-78
2022/03/11 14:25:34;;;;;;;19.40;13.85;;;8.80;62.10;;;;;;5079316;28;20433;-78
2022/03/11 14:28:05;;;;;;;21.83;13.70;;;8.90;62.90;;;;;;5095078;28;20035;-78
2022/03/11 14:30:32;;;;;;;23.90;14.57;;;8.90;62.20;;;;;;5089130;28;20119;-78
2022/03/11 14:32:58;;;;;;;21.30;13.52;;;8.90;63.90;;;;;;5101211;28;20032;-78
2022/03/11 14:35:44;;;;;;;28.05;13.57;;;8.80;64.00;;;;;;5095845;28;20379;-77
2022/03/11 14:38:24;;;;;;;26.67;13.88;;;8.70;65.30;;;;;;5092996;28;20059;-78
2022/03/11 14:40:50;;;;;;;20.60;13.10;;;8.80;64.30;;;;;;5101424;28;20028;-77
2022/03/11 14:43:19;;;;;;;20.02;13.30;;;8.60;63.10;;;;;;5082269;28;20020;-78
2022/03/11 14:45:48;;;;;;;23.10;13.68;;;8.60;63.60;;;;;;5102605;28;20032;-78
2022/03/11 14:48:14;;;;;;;20.40;13.40;;;8.60;63.30;;;;;;5104597;28;20019;-78
2022/03/11 14:50:44;;;;;;;20.45;14.10;;;8.70;63.90;;;;;;5082469;28;20077;-77
2022/03/11 14:53:10;;;;;;;31.77;15.07;;;8.60;64.60;;;;;;5086776;28;20027;-78
2022/03/11 14:55:41;;;;;;;25.45;16.17;;;8.60;64.00;;;;;;5084804;28;20051;-77
2022/03/11 14:58:10;;;;;;;26.13;15.38;;;8.70;64.30;;;;;;5090501;28;20057;-77
2022/03/11 15:00:42;;;;;;;25.23;15.70;;;8.70;63.60;;;;;;5108960;28;20501;-77
2022/03/11 15:03:08;;;;;;;43.42;17.02;;;8.80;64.40;;;;;;5103445;28;20390;-77
2022/03/11 15:05:38;;;;;;;31.00;16.60;;;8.80;63.40;;;;;;5111777;28;20027;-77
2022/03/11 15:08:14;;;;;;;26.73;16.00;;;8.90;64.20;;;;;;5107942;28;20032;-77
2022/03/11 15:10:40;;;;;;;32.72;17.83;;;9.00;64.30;;;;;;5106728;28;20025;-77
2022/03/11 15:13:06;;;;;;;20.00;14.35;;;9.00;64.20;;;;;;5105155;28;20032;-78
2022/03/11 15:15:32;;;;;;;19.05;13.48;;;8.90;63.80;;;;;;5099549;28;20040;-77
2022/03/11 15:18:06;;;;;;;28.42;14.70;;;8.90;63.70;;;;;;5104585;28;20020;-77
2022/03/11 15:20:35;;;;;;;21.98;14.65;;;8.90;63.90;;;;;;5093769;28;20024;-77
2022/03/11 15:23:02;;;;;;;23.17;14.00;;;8.80;64.60;;;;;;5101301;28;20012;-77
2022/03/11 15:25:29;;;;;;;24.08;14.15;;;8.80;64.70;;;;;;5089300;28;20023;-78
2022/03/11 15:27:58;;;;;;;19.42;12.75;;;8.80;65.40;;;;;;5100717;28;20519;-78
2022/03/11 15:30:42;;;;;;;21.83;13.73;;;8.90;64.60;;;;;;5108932;28;20505;-77
2022/03/11 15:33:12;;;;;;;25.90;14.63;;;8.80;63.60;;;;;;5102380;27;20043;-77
2022/03/11 15:35:38;;;;;;;21.23;14.23;;;8.90;64.10;;;;;;5087745;28;20109;-77
2022/03/11 15:38:16;;;;;;;21.63;12.70;;;8.90;63.30;;;;;;5101539;28;20016;-77
2022/03/11 15:40:45;;;;;;;18.45;13.35;;;8.90;67.50;;;;;;5105463;28;20024;-77
2022/03/11 15:43:12;;;;;;;25.83;13.98;;;8.90;68.70;;;;;;5084142;28;20051;-77
2022/03/11 15:45:40;;;;;;;25.95;14.13;;;8.80;68.90;;;;;;5087470;28;20036;-77
2022/03/11 15:48:09;;;;;;;18.65;12.88;;;8.50;71.40;;;;;;5101842;28;20023;-77
2022/03/11 15:50:35;;;;;;;21.52;14.35;;;8.30;72.00;;;;;;5089179;28;20240;-77
2022/03/11 15:53:02;;;;;;;27.33;13.40;;;8.20;73.30;;;;;;5082977;28;20026;-77
2022/03/11 15:55:29;;;;;;;21.25;12.48;;;8.00;73.70;;;;;;5088804;28;20496;-77
2022/03/11 15:57:58;;;;;;;24.25;12.73;;;8.00;74.70;;;;;;5099566;28;20111;-77
2022/03/11 16:00:24;;;;;;;23.02;12.93;;;8.00;75.00;;;;;;5105998;28;20012;-77
2022/03/11 16:02:55;;;;;;;22.75;14.15;;;8.00;73.50;;;;;;5102923;28;20024;-77
2022/03/11 16:05:24;;;;;;;20.35;12.75;;;8.10;70.40;;;;;;5107292;28;20020;-77
2022/03/11 16:07:50;;;;;;;21.13;12.35;;;8.20;67.30;;;;;;5100516;28;20474;-78
2022/03/11 16:10:27;;;;;;;17.40;11.98;;;8.20;66.20;;;;;;5107527;28;20095;-78
2022/03/11 16:12:54;;;;;;;23.02;12.73;;;8.20;65.50;;;;;;5084583;28;20393;-77
2022/03/11 16:15:20;;;;;;;21.33;12.90;;;8.20;65.50;;;;;;5099839;28;20070;-77
2022/03/11 16:17:46;;;;;;;22.17;12.18;;;8.20;64.60;;;;;;5099954;28;20114;-77
2022/03/11 16:20:12;;;;;;;18.83;12.23;;;8.20;65.50;;;;;;5104358;28;20514;-77
2022/03/11 16:22:38;;;;;;;20.50;11.80;;;8.20;65.30;;;;;;5086023;28;20020;-78
2022/03/11 16:25:05;;;;;;;26.33;13.25;;;8.10;65.90;;;;;;5105659;28;20019;-77
2022/03/11 16:27:34;;;;;;;21.30;13.63;;;8.10;66.20;;;;;;5101074;28;20435;-77
2022/03/11 16:30:00;;;;;;;19.05;13.27;;;8.00;65.90;;;;;;5104911;28;20020;-77
2022/03/11 16:32:26;;;;;;;27.77;14.25;;;7.90;66.10;;;;;;5087512;28;20024;-77
2022/03/11 16:35:15;;;;;;;22.55;15.10;;;7.90;66.20;;;;;;5102975;28;20101;-77
2022/03/11 16:37:41;;;;;;;21.67;13.15;;;7.80;66.90;;;;;;5091167;28;20019;-78
2022/03/11 16:40:11;;;;;;;20.67;13.90;;;7.70;67.60;;;;;;5105621;28;20076;-77
2022/03/11 16:42:42;;;;;;;26.75;14.70;;;7.60;67.80;;;;;;5100204;28;20017;-77
2022/03/11 16:45:08;;;;;;;22.17;12.83;;;7.50;68.50;;;;;;5081710;28;20508;-76
2022/03/11 16:47:35;;;;;;;21.33;14.10;;;7.40;68.30;;;;;;5086075;28;20508;-77
2022/03/11 16:50:04;;;;;;;23.15;13.68;;;7.30;68.70;;;;;;5104617;28;20479;-77
2022/03/11 16:52:30;;;;;;;23.48;12.90;;;7.20;69.60;;;;;;5100867;28;20024;-77
2022/03/11 16:55:02;;;;;;;20.15;12.60;;;7.10;70.00;;;;;;5103934;28;20495;-77
2022/03/11 16:57:28;;;;;;;24.00;13.32;;;7.00;70.80;;;;;;5100998;28;20031;-77
2022/03/11 16:59:56;;;;;;;19.70;13.80;;;6.90;71.40;;;;;;5099043;28;20556;-77
2022/03/11 17:02:22;;;;;;;23.45;14.57;;;6.80;72.30;;;;;;5099767;28;20019;-77
2022/03/11 17:04:48;;;;;;;25.88;14.90;;;6.70;72.60;;;;;;5098925;28;20020;-77
2022/03/11 17:07:13;;;;;;;22.02;13.45;;;6.60;72.40;;;;;;5100970;28;20012;-77
2022/03/11 17:09:40;;;;;;;27.05;15.10;;;6.50;71.70;;;;;;5103437;28;20032;-78
2022/03/11 17:12:06;;;;;;;25.17;15.18;;;6.40;72.10;;;;;;5101483;28;20482;-77
2022/03/11 17:14:32;;;;;;;28.35;15.85;;;6.30;72.00;;;;;;5085596;28;20047;-77
2022/03/11 17:16:58;;;;;;;24.08;14.05;;;6.20;72.60;;;;;;5103958;28;20044;-77
2022/03/11 17:19:24;;;;;;;28.10;15.32;;;6.20;72.50;;;;;;5103443;28;20106;-77
2022/03/11 17:21:50;;;;;;;24.38;12.95;;;6.10;72.20;;;;;;5103078;28;20111;-77
2022/03/11 17:24:18;;;;;;;25.50;12.60;;;6.10;70.30;;;;;;5084698;28;20047;-78
2022/03/11 17:26:47;;;;;;;20.02;14.30;;;6.00;70.30;;;;;;5102736;28;20356;-77